Time;durP1;ratioP1;P1;durP2;ratioP2;P2;SDS_P1;SDS_P2;PMS_P1;PMS_P2;Temp;Humidity;BMP_temperature;BMP_pressure;BME280_temperature;BME280_humidity;BME280_pressure;Samples;Min_cycle;Max_cycle;Signal;HPM_P1;HPM_P2
2023/06/11 03:08:44;;;;;;;23.95;9.60;;;;;;;;;;6234822;22;20209;-93
2023/06/11 03:11:50;;;;;;;40.22;8.82;;;;;;;;;;6307752;22;20164;-94
2023/06/11 03:14:55;;;;;;;27.70;7.90;;;;;;;;;;6308249;22;20145;-93
2023/06/11 03:22:19;;;;;;;13.98;8.18;;;;;;;;;;6325629;22;20166;-94
2023/06/11 03:25:26;;;;;;;37.72;8.10;;;;;;;;;;6306805;22;20160;-91
2023/06/11 03:28:32;;;;;;;20.75;8.15;;;;;;;;;;6304954;22;20504;-93
2023/06/11 03:31:40;;;;;;;33.45;8.43;;;;;;;;;;6307033;22;20204;-93
2023/06/11 03:34:45;;;;;;;20.95;7.65;;;;;;;;;;6308150;22;20257;-94
2023/06/11 03:37:52;;;;;;;33.15;7.57;;;;;;;;;;6307372;22;20165;-93
2023/06/11 03:41:02;;;;;;;11.30;7.60;;;;;;;;;;6307724;22;20165;-94
2023/06/11 03:44:12;;;;;;;13.27;6.28;;;;;;;;;;6307573;22;20237;-91
2023/06/11 03:47:18;;;;;;;11.95;5.68;;;;;;;;;;6308586;22;20169;-93
2023/06/11 03:50:24;;;;;;;8.70;5.43;;;;;;;;;;6308426;22;20169;-94
2023/06/11 03:53:33;;;;;;;25.95;6.30;;;;;;;;;;6308104;22;20160;-92
2023/06/11 04:04:48;;;;;;;30.15;6.45;;;;;;;;;;6309566;22;20211;-95
2023/06/11 04:07:54;;;;;;;18.63;6.60;;;;;;;;;;6310686;22;20165;-93
2023/06/11 04:11:00;;;;;;;27.05;7.20;;;;;;;;;;6329584;22;20157;-94
2023/06/11 04:14:06;;;;;;;23.00;7.13;;;;;;;;;;6309257;22;20233;-91
2023/06/11 04:17:13;;;;;;;13.10;7.05;;;;;;;;;;6308575;22;20164;-92
2023/06/11 04:20:21;;;;;;;12.75;5.72;;;;;;;;;;6308066;22;20197;-93
2023/06/11 04:23:26;;;;;;;20.65;5.95;;;;;;;;;;6307316;22;20164;-94
2023/06/11 04:26:31;;;;;;;12.90;6.90;;;;;;;;;;6307707;22;20219;-93
2023/06/11 04:29:38;;;;;;;10.73;5.78;;;;;;;;;;6308160;22;20177;-94
2023/06/11 04:32:47;;;;;;;13.98;6.15;;;;;;;;;;6308587;22;20218;-94
2023/06/11 04:35:56;;;;;;;9.13;5.88;;;;;;;;;;6307485;22;20169;-93
2023/06/11 04:39:04;;;;;;;11.52;6.43;;;;;;;;;;6309102;22;20215;-94
2023/06/11 04:42:11;;;;;;;10.07;6.10;;;;;;;;;;6308614;22;20219;-93
2023/06/11 04:45:20;;;;;;;14.23;6.90;;;;;;;;;;6306758;22;20165;-91
2023/06/11 04:48:31;;;;;;;21.17;6.80;;;;;;;;;;6306577;22;20172;-92
2023/06/11 04:51:40;;;;;;;10.63;6.50;;;;;;;;;;6308260;22;20161;-91
2023/06/11 04:54:47;;;;;;;7.63;5.93;;;;;;;;;;6308386;22;20169;-91
2023/06/11 04:57:54;;;;;;;9.88;5.75;;;;;;;;;;6307196;22;20149;-91
2023/06/11 05:01:00;;;;;;;12.80;6.90;;;;;;;;;;6304173;22;20247;-93
2023/06/11 05:04:06;;;;;;;9.73;6.15;;;;;;;;;;6307897;22;20197;-94
2023/06/11 05:07:15;;;;;;;11.18;6.30;;;;;;;;;;6307095;22;20184;-94
2023/06/11 05:10:21;;;;;;;8.13;5.80;;;;;;;;;;6307362;22;20188;-94
2023/06/11 05:13:27;;;;;;;9.90;6.53;;;;;;;;;;6307468;22;20212;-93
2023/06/11 05:16:37;;;;;;;8.63;5.72;;;;;;;;;;6306418;22;20227;-92
2023/06/11 05:19:52;;;;;;;9.25;6.15;;;;;;;;;;6306543;22;20204;-93
2023/06/11 05:23:02;;;;;;;9.85;6.57;;;;;;;;;;6306748;22;20145;-92
2023/06/11 05:26:12;;;;;;;12.23;7.05;;;;;;;;;;6306594;22;20165;-92
2023/06/11 05:29:24;;;;;;;10.88;6.63;;;;;;;;;;6307059;22;20173;-91
2023/06/11 05:32:31;;;;;;;9.43;6.63;;;;;;;;;;6308061;22;20550;-92
2023/06/11 05:35:39;;;;;;;9.07;6.55;;;;;;;;;;6308874;22;20181;-92
2023/06/11 05:38:46;;;;;;;9.73;6.47;;;;;;;;;;6307806;22;20166;-91
2023/06/11 05:41:53;;;;;;;9.60;6.93;;;;;;;;;;6308034;22;20165;-92
2023/06/11 05:45:03;;;;;;;8.98;6.38;;;;;;;;;;6310673;22;20161;-90
2023/06/11 05:48:10;;;;;;;9.15;6.55;;;;;;;;;;6308667;22;20240;-92
2023/06/11 05:51:20;;;;;;;8.07;6.05;;;;;;;;;;6307041;22;20244;-91
2023/06/11 05:54:28;;;;;;;9.30;6.50;;;;;;;;;;6306853;22;20176;-93
2023/06/11 05:57:34;;;;;;;8.55;6.22;;;;;;;;;;6307831;22;20165;-92
2023/06/11 06:04:06;;;;;;;8.27;5.90;;;;;;;;;;6311867;22;20204;-92
2023/06/11 06:07:11;;;;;;;9.02;5.55;;;;;;;;;;6309417;22;20169;-91
2023/06/11 06:10:18;;;;;;;8.45;5.88;;;;;;;;;;6307701;22;20192;-94
2023/06/11 06:13:25;;;;;;;8.00;5.55;;;;;;;;;;6307919;22;20165;-93
2023/06/11 06:16:32;;;;;;;8.63;5.75;;;;;;;;;;6307562;22;20169;-93
2023/06/11 06:19:40;;;;;;;7.97;5.60;;;;;;;;;;6308160;22;20248;-93
2023/06/11 06:22:45;;;;;;;20.35;10.75;;;;;;;;;;6307952;22;20169;-92
2023/06/11 06:25:53;;;;;;;6.45;5.18;;;;;;;;;;6306437;22;20181;-93
2023/06/11 06:28:59;;;;;;;7.85;5.00;;;;;;;;;;6308235;22;20164;-91
2023/06/11 06:32:04;;;;;;;6.28;4.65;;;;;;;;;;6306665;22;20164;-92
2023/06/11 06:35:11;;;;;;;6.30;4.38;;;;;;;;;;6307509;22;20202;-93
2023/06/11 06:38:24;;;;;;;4.90;3.85;;;;;;;;;;6308811;22;20153;-95
2023/06/11 06:41:31;;;;;;;7.65;4.05;;;;;;;;;;6308346;22;20184;-93
2023/06/11 06:44:42;;;;;;;6.03;4.03;;;;;;;;;;6309444;22;20165;-94
2023/06/11 06:47:48;;;;;;;6.25;3.60;;;;;;;;;;6309252;22;20169;-94
2023/06/11 06:50:54;;;;;;;4.93;3.40;;;;;;;;;;6309476;22;20181;-94
2023/06/11 06:54:00;;;;;;;9.40;3.70;;;;;;;;;;6311277;22;20165;-94
2023/06/11 06:57:35;;;;;;;6.15;3.42;;;;;;;;;;6309462;22;20609;-96
2023/06/11 07:00:42;;;;;;;7.18;3.60;;;;;;;;;;6309339;22;20261;-93
2023/06/11 07:03:49;;;;;;;5.25;3.40;;;;;;;;;;6310128;22;20164;-94
2023/06/11 07:06:55;;;;;;;3.95;3.20;;;;;;;;;;6309715;22;20156;-95
2023/06/11 07:10:00;;;;;;;4.15;3.30;;;;;;;;;;6308982;22;20200;-95
2023/06/11 07:13:06;;;;;;;5.07;3.63;;;;;;;;;;6307430;22;20161;-95
2023/06/11 07:16:14;;;;;;;6.22;2.70;;;;;;;;;;6307950;22;20213;-94
2023/06/11 07:19:53;;;;;;;5.78;2.80;;;;;;;;;;6307042;22;20149;-95
2023/06/11 07:22:59;;;;;;;5.43;2.63;;;;;;;;;;6308853;22;20145;-95
2023/06/11 07:26:06;;;;;;;5.03;2.90;;;;;;;;;;6307658;22;20165;-94
2023/06/11 07:29:11;;;;;;;5.80;2.42;;;;;;;;;;6307909;22;20160;-95
2023/06/11 07:32:18;;;;;;;6.13;2.40;;;;;;;;;;6310367;22;20149;-93
2023/06/11 07:35:27;;;;;;;6.30;2.47;;;;;;;;;;6310430;22;20211;-95
2023/06/11 07:38:32;;;;;;;4.18;2.67;;;;;;;;;;6308834;22;20153;-94
2023/06/11 07:41:37;;;;;;;4.75;2.65;;;;;;;;;;6308367;22;20174;-94
2023/06/11 07:44:45;;;;;;;2.38;2.08;;;;;;;;;;6310403;22;20231;-94
2023/06/11 07:47:53;;;;;;;3.95;2.10;;;;;;;;;;6311130;22;20176;-93
2023/06/11 07:50:59;;;;;;;3.55;2.53;;;;;;;;;;6310805;22;20164;-92
2023/06/11 11:03:25;;;;;;;5.03;2.60;;;;;;;;;;6266190;22;20197;-92
2023/06/11 11:06:31;;;;;;;5.57;2.90;;;;;;;;;;6309049;22;20167;-92
2023/06/11 11:09:36;;;;;;;4.95;2.83;;;;;;;;;;6307946;22;20216;-92
2023/06/11 11:12:42;;;;;;;4.57;2.75;;;;;;;;;;6308317;22;20600;-92
2023/06/11 11:23:28;;;;;;;4.65;2.92;;;;;;;;;;6325886;22;20235;-93
